Time;durP1;ratioP1;P1;durP2;ratioP2;P2;SDS_P1;SDS_P2;PMS_P1;PMS_P2;Temp;Humidity;BMP_temperature;BMP_pressure;BME280_temperature;BME280_humidity;BME280_pressure;Samples;Min_cycle;Max_cycle;Signal;HPM_P1;HPM_P2
2023/08/07 00:01:20;;;;;;;2.72;1.60;;;;;;;;;;5002554;28;20045;-61
2023/08/07 00:03:47;;;;;;;2.42;1.40;;;;;;;;;;4989805;28;20082;-62
2023/08/07 00:06:13;;;;;;;3.10;1.63;;;;;;;;;;4987520;28;20513;-62
2023/08/07 00:08:39;;;;;;;2.92;1.67;;;;;;;;;;4984976;28;20038;-62
2023/08/07 00:11:09;;;;;;;3.53;1.42;;;;;;;;;;4967015;28;20548;-62
2023/08/07 00:13:35;;;;;;;4.50;1.85;;;;;;;;;;4988102;28;20042;-62
2023/08/07 00:16:03;;;;;;;5.70;2.45;;;;;;;;;;4980541;28;20065;-62
2023/08/07 00:18:29;;;;;;;9.40;2.95;;;;;;;;;;4969996;28;20053;-62
2023/08/07 00:20:55;;;;;;;5.60;2.47;;;;;;;;;;4987388;28;20050;-62
2023/08/07 00:23:22;;;;;;;5.63;2.00;;;;;;;;;;4986530;28;20417;-62
2023/08/07 00:25:48;;;;;;;9.05;2.67;;;;;;;;;;4981213;28;20427;-61
2023/08/07 00:28:14;;;;;;;10.43;3.72;;;;;;;;;;4981052;28;20043;-62
2023/08/07 00:30:40;;;;;;;8.38;3.17;;;;;;;;;;4993798;28;20181;-62
2023/08/07 00:33:07;;;;;;;10.93;3.33;;;;;;;;;;4983230;28;20512;-61
2023/08/07 00:35:33;;;;;;;8.30;3.42;;;;;;;;;;4973107;28;20050;-61
2023/08/07 00:37:59;;;;;;;9.07;3.50;;;;;;;;;;4988082;28;20042;-62
2023/08/07 00:40:25;;;;;;;7.75;3.08;;;;;;;;;;4986892;28;20046;-62
2023/08/07 00:42:52;;;;;;;15.48;3.47;;;;;;;;;;4980191;28;20527;-62
2023/08/07 00:45:21;;;;;;;19.58;3.40;;;;;;;;;;4981394;28;20478;-61
2023/08/07 00:47:47;;;;;;;7.40;2.83;;;;;;;;;;4987785;28;20057;-61
2023/08/07 00:50:14;;;;;;;6.47;3.03;;;;;;;;;;4988124;28;20091;-62
2023/08/07 00:52:40;;;;;;;14.43;2.92;;;;;;;;;;4988508;28;20073;-62
2023/08/07 00:55:08;;;;;;;9.20;3.40;;;;;;;;;;4987488;28;20604;-62
2023/08/07 00:57:34;;;;;;;7.00;2.65;;;;;;;;;;4987118;28;20551;-62
2023/08/07 01:00:00;;;;;;;12.20;3.15;;;;;;;;;;4983967;28;20672;-61
2023/08/07 01:02:26;;;;;;;7.15;2.92;;;;;;;;;;4987306;28;20092;-62
2023/08/07 01:04:53;;;;;;;6.38;2.17;;;;;;;;;;4987349;28;20038;-62
2023/08/07 01:07:19;;;;;;;8.95;3.28;;;;;;;;;;4950769;28;20078;-62
2023/08/07 01:09:45;;;;;;;5.97;2.95;;;;;;;;;;4964328;28;20497;-62
2023/08/07 01:12:15;;;;;;;7.53;3.00;;;;;;;;;;4984078;28;20101;-61
2023/08/07 01:14:48;;;;;;;12.32;3.20;;;;;;;;;;4986560;28;20536;-61
2023/08/07 01:17:17;;;;;;;6.30;2.50;;;;;;;;;;4986852;28;20045;-61
2023/08/07 01:19:43;;;;;;;14.27;3.45;;;;;;;;;;4965847;28;20038;-62
2023/08/07 01:22:10;;;;;;;9.38;3.25;;;;;;;;;;4994611;28;20053;-62
2023/08/07 01:24:37;;;;;;;7.07;2.75;;;;;;;;;;4986767;28;20038;-62
2023/08/07 01:27:11;;;;;;;8.35;3.10;;;;;;;;;;4952524;28;20042;-62
2023/08/07 01:29:41;;;;;;;10.30;2.90;;;;;;;;;;4986404;28;20046;-62
2023/08/07 01:32:08;;;;;;;11.20;3.97;;;;;;;;;;4972915;28;20038;-62
2023/08/07 01:34:35;;;;;;;9.13;2.80;;;;;;;;;;4985692;28;20088;-62
2023/08/07 01:37:02;;;;;;;9.77;3.42;;;;;;;;;;4986601;28;20100;-62
2023/08/07 01:39:29;;;;;;;9.25;3.13;;;;;;;;;;4986729;28;20069;-62
2023/08/07 01:41:55;;;;;;;9.00;2.50;;;;;;;;;;4983343;28;20050;-62
2023/08/07 01:44:21;;;;;;;6.60;2.47;;;;;;;;;;4986540;28;20049;-62
2023/08/07 01:46:48;;;;;;;7.82;3.10;;;;;;;;;;4990819;28;20160;-62
2023/08/07 01:49:14;;;;;;;11.85;3.78;;;23.00;99.90;;;;;;4986989;28;20466;-62
2023/08/07 01:51:39;;;;;;;13.52;4.18;;;16.90;99.90;;;;;;4989826;28;20061;-62
2023/08/07 01:54:05;;;;;;;7.53;3.10;;;16.80;99.90;;;;;;4983825;28;20046;-62
2023/08/07 01:56:31;;;;;;;10.80;2.80;;;16.70;99.90;;;;;;4986385;28;20054;-62
2023/08/07 01:58:57;;;;;;;11.13;3.72;;;16.70;99.90;;;;;;4985351;28;20116;-62
2023/08/07 02:01:22;;;;;;;10.82;3.33;;;16.70;99.90;;;;;;4989599;28;20448;-62
2023/08/07 02:03:48;;;;;;;5.07;3.10;;;16.70;99.90;;;;;;4982351;28;20509;-62
2023/08/07 02:06:14;;;;;;;8.25;3.38;;;16.70;99.90;;;;;;4988318;28;20085;-62
2023/08/07 02:08:39;;;;;;;9.20;3.28;;;16.60;99.90;;;;;;4986526;28;20071;-62
2023/08/07 02:11:05;;;;;;;9.52;3.63;;;16.70;99.90;;;;;;4989939;28;20038;-62
2023/08/07 02:13:31;;;;;;;6.93;3.05;;;;;;;;;;4987392;28;20047;-62
2023/08/07 02:15:58;;;;;;;8.38;3.13;;;;;;;;;;4982440;28;20050;-62
2023/08/07 02:18:24;;;;;;;10.27;3.42;;;;;;;;;;4967250;28;20062;-62
2023/08/07 02:20:50;;;;;;;9.63;3.00;;;;;;;;;;4988336;28;20047;-63
2023/08/07 02:23:16;;;;;;;8.45;3.35;;;;;;;;;;4985509;28;20049;-62
2023/08/07 02:25:42;;;;;;;9.05;2.97;;;;;;;;;;4990355;28;20532;-62
2023/08/07 02:28:08;;;;;;;8.30;2.80;;;;;;;;;;4989630;28;20177;-62
2023/08/07 02:30:34;;;;;;;9.35;3.17;;;;;;;;;;4990739;28;20412;-62
2023/08/07 02:33:01;;;;;;;8.88;3.17;;;;;;;;;;4989517;28;20694;-62
2023/08/07 02:35:27;;;;;;;6.63;3.05;;;;;;;;;;4983431;28;20579;-62
2023/08/07 02:37:53;;;;;;;7.38;3.10;;;;;;;;;;4994622;28;20042;-62
2023/08/07 02:40:19;;;;;;;12.13;3.42;;;;;;;;;;4977342;28;20046;-62
2023/08/07 02:42:45;;;;;;;6.80;3.38;;;;;;;;;;4995640;28;20121;-62
2023/08/07 02:45:11;;;;;;;6.35;2.90;;;;;;;;;;4991833;28;20038;-62
2023/08/07 02:47:37;;;;;;;7.47;2.85;;;;;;;;;;4988674;28;20050;-63
2023/08/07 02:50:04;;;;;;;6.07;2.60;;;;;;;;;;4973662;28;20050;-62
2023/08/07 02:52:30;;;;;;;4.82;2.42;;;;;;;;;;4985404;28;20442;-62
2023/08/07 02:54:56;;;;;;;5.55;2.50;;;;;;;;;;4988554;28;20042;-62
2023/08/07 02:57:22;;;;;;;7.00;3.00;;;;;;;;;;4986373;28;20050;-62
2023/08/07 02:59:48;;;;;;;7.60;2.78;;;;;;;;;;4990823;28;20045;-62
2023/08/07 03:02:14;;;;;;;8.13;2.97;;;;;;;;;;4991631;28;20058;-62
2023/08/07 03:04:41;;;;;;;7.28;3.35;;;;;;;;;;4989482;28;20034;-62
2023/08/07 03:07:07;;;;;;;7.32;2.92;;;;;;;;;;4989312;28;20050;-63
2023/08/07 03:09:33;;;;;;;9.68;3.53;;;;;;;;;;4988760;28;20478;-63
2023/08/07 03:12:03;;;;;;;3.78;2.60;;;;;;;;;;4971519;28;20038;-62
2023/08/07 03:14:29;;;;;;;7.05;2.90;;;;;;;;;;4986401;28;20061;-62
2023/08/07 03:16:56;;;;;;;6.32;3.65;;;;;;;;;;4982079;28;20490;-62
2023/08/07 03:19:22;;;;;;;10.63;3.80;;;;;;;;;;4986618;28;20034;-62
2023/08/07 03:21:48;;;;;;;11.38;3.50;;;;;;;;;;4988970;28;20383;-62
2023/08/07 03:24:14;;;;;;;9.43;3.92;;;;;;;;;;4988261;28;20104;-62
2023/08/07 03:26:41;;;;;;;8.10;3.70;;;;;;;;;;4978831;28;20210;-62
2023/08/07 03:29:07;;;;;;;10.70;3.33;;;;;;;;;;4982744;28;20053;-62
2023/08/07 03:31:33;;;;;;;12.82;4.03;;;;;;;;;;4988055;28;20402;-62
2023/08/07 03:33:59;;;;;;;10.80;4.60;;;;;;;;;;4989283;28;20144;-63
2023/08/07 03:36:25;;;;;;;6.85;3.40;;;;;;;;;;4988714;28;20038;-62
2023/08/07 03:38:51;;;;;;;12.23;4.22;;;;;;;;;;4989449;28;20042;-62
2023/08/07 03:41:17;;;;;;;11.48;3.60;;;;;;;;;;4972423;28;20516;-62
2023/08/07 03:43:43;;;;;;;7.90;3.22;;;;;;;;;;4983837;28;20390;-62
2023/08/07 03:46:09;;;;;;;6.40;3.08;;;;;;;;;;4985527;28;20319;-62
2023/08/07 03:48:35;;;;;;;12.48;4.15;;;;;;;;;;4988595;28;20236;-62
2023/08/07 03:51:03;;;;;;;12.95;3.55;;;;;;;;;;4985142;28;20049;-62
2023/08/07 03:53:29;;;;;;;9.32;3.75;;;;;;;;;;4988737;28;20226;-62
2023/08/07 03:55:55;;;;;;;18.08;5.05;;;;;;;;;;4987336;28;20076;-62
2023/08/07 03:58:21;;;;;;;10.55;4.30;;;;;;;;;;4964341;28;20417;-62
2023/08/07 04:00:48;;;;;;;12.85;3.92;;;;;;;;;;4988073;28;20042;-63
2023/08/07 04:03:14;;;;;;;8.88;3.55;;;;;;;;;;4987936;28;20070;-62
2023/08/07 04:05:40;;;;;;;8.18;3.10;;;;;;;;;;4968016;28;20113;-62
2023/08/07 04:08:06;;;;;;;15.60;3.92;;;;;;;;;;4967500;28;20130;-62
2023/08/07 04:10:32;;;;;;;10.63;3.72;;;;;;;;;;4985050;28;20144;-62
2023/08/07 04:12:58;;;;;;;8.98;3.97;;;;;;;;;;4956020;28;20150;-62
2023/08/07 04:15:24;;;;;;;9.10;4.25;;;;;;;;;;4984747;28;20062;-62
2023/08/07 04:17:51;;;;;;;9.18;3.10;;;;;;;;;;4988334;28;20355;-62
2023/08/07 04:20:17;;;;;;;12.23;3.78;;;;;;;;;;4985085;28;20470;-62
2023/08/07 04:22:44;;;;;;;12.18;3.40;;;;;;;;;;4987706;28;20497;-62
2023/08/07 04:25:11;;;;;;;7.40;3.15;;;;;;;;;;4970446;28;20129;-62
2023/08/07 04:27:38;;;;;;;14.57;4.20;;;;;;;;;;4977298;28;20030;-63
2023/08/07 04:30:04;;;;;;;14.18;3.72;;;;;;;;;;4989743;28;20068;-62
2023/08/07 04:32:30;;;;;;;10.68;3.55;;;;;;;;;;4991053;28;20042;-62
2023/08/07 04:34:56;;;;;;;9.98;3.83;;;;;;;;;;4987464;28;20042;-62
2023/08/07 04:37:23;;;;;;;14.25;4.60;;;;;;;;;;4986119;28;20045;-63
2023/08/07 04:39:49;;;;;;;11.77;6.22;;;;;;;;;;4979400;28;20497;-62
2023/08/07 04:42:15;;;;;;;9.82;4.65;;;;;;;;;;4984793;28;20039;-62
2023/08/07 04:44:41;;;;;;;13.27;5.32;;;;;;;;;;4952914;28;20026;-62
2023/08/07 04:47:07;;;;;;;12.20;4.03;;;;;;;;;;4987419;28;20413;-63
2023/08/07 04:49:33;;;;;;;11.27;4.25;;;;;;;;;;4987656;28;20453;-62
2023/08/07 04:51:59;;;;;;;10.35;3.60;;;;;;;;;;4990732;28;20046;-62
2023/08/07 04:54:25;;;;;;;8.30;3.75;;;;;;;;;;4986416;28;20125;-62
2023/08/07 04:56:52;;;;;;;11.20;4.07;;;;;;;;;;4996364;28;20490;-63
2023/08/07 04:59:18;;;;;;;9.82;4.28;;;;;;;;;;4987765;28;20430;-63
2023/08/07 05:01:44;;;;;;;17.38;4.55;;;;;;;;;;4992573;28;20046;-63
2023/08/07 05:04:11;;;;;;;15.63;4.45;;;;;;;;;;4987345;28;20498;-62
2023/08/07 05:06:37;;;;;;;11.48;4.57;;;;;;;;;;4963632;28;20549;-62
2023/08/07 05:09:03;;;;;;;8.20;4.38;;;;;;;;;;4985068;28;20035;-63
2023/08/07 05:11:29;;;;;;;11.07;4.10;;;;;;;;;;4991208;28;20031;-62
2023/08/07 05:13:56;;;;;;;15.50;5.15;;;;;;;;;;4982190;28;20053;-62
2023/08/07 05:16:23;;;;;;;11.85;3.80;;;;;;;;;;4977255;28;20494;-63
2023/08/07 05:18:49;;;;;;;9.70;5.50;;;;;;;;;;4979190;28;20067;-62
2023/08/07 05:21:16;;;;;;;12.65;5.03;;;;;;;;;;4982447;28;20069;-63
2023/08/07 05:23:42;;;;;;;8.10;4.10;;;;;;;;;;4982451;28;20077;-63
2023/08/07 05:26:08;;;;;;;12.27;3.83;;;;;;;;;;4981078;28;20089;-61
2023/08/07 05:28:34;;;;;;;15.68;5.68;;;;;;;;;;4966754;28;20035;-63
2023/08/07 05:31:00;;;;;;;9.25;3.53;;;;;;;;;;4989904;28;20053;-63
2023/08/07 05:33:26;;;;;;;13.30;4.00;;;;;;;;;;4967461;28;20057;-63
2023/08/07 05:35:53;;;;;;;8.73;4.50;;;;;;;;;;4989005;28;20052;-62
2023/08/07 05:38:19;;;;;;;13.15;4.43;;;;;;;;;;4992367;28;20772;-63
2023/08/07 05:40:45;;;;;;;10.32;4.03;;;;;;;;;;4978940;28;20393;-62
2023/08/07 05:43:12;;;;;;;9.90;3.92;;;;;;;;;;4992519;28;20322;-62
2023/08/07 05:45:38;;;;;;;6.78;3.65;;;;;;;;;;4965175;28;20038;-63
2023/08/07 05:48:05;;;;;;;13.18;5.50;;;;;;;;;;4995561;28;20413;-63
2023/08/07 05:50:31;;;;;;;11.43;4.18;;;;;;;;;;4985562;28;20168;-63
2023/08/07 05:52:57;;;;;;;10.02;3.65;;;;;;;;;;4984022;28;20610;-63
2023/08/07 05:55:23;;;;;;;10.13;4.30;;;;;;;;;;4981307;28;20034;-63
2023/08/07 05:57:50;;;;;;;10.52;3.40;;;;;;;;;;4964921;28;20050;-63
2023/08/07 06:00:19;;;;;;;11.15;4.45;;;;;;;;;;4967647;28;20050;-63
2023/08/07 06:02:45;;;;;;;9.52;3.97;;;;;;;;;;4983421;28;20097;-61
2023/08/07 06:05:14;;;;;;;12.23;3.80;;;;;;;;;;4985875;28;20051;-64
2023/08/07 06:07:40;;;;;;;9.00;3.90;;;;;;;;;;4968131;28;20069;-65
2023/08/07 06:10:12;;;;;;;13.37;4.97;;;;;;;;;;4977662;28;20046;-63
2023/08/07 06:12:38;;;;;;;12.63;3.28;;;;;;;;;;4986627;28;20053;-63
2023/08/07 06:15:05;;;;;;;9.10;3.63;;;;;;;;;;4985635;28;20414;-62
2023/08/07 06:17:31;;;;;;;11.10;2.90;;;;;;;;;;4987426;28;20409;-63
2023/08/07 06:19:57;;;;;;;7.22;3.22;;;;;;;;;;4978609;28;20039;-63
2023/08/07 06:22:23;;;;;;;7.47;2.50;;;;;;;;;;4986689;28;20042;-63
2023/08/07 06:24:49;;;;;;;5.57;2.33;;;;;;;;;;4970428;28;20310;-66
2023/08/07 06:27:15;;;;;;;5.07;2.10;;;;;;;;;;4972417;28;20097;-64
2023/08/07 06:29:42;;;;;;;5.85;2.50;;;;;;;;;;4985600;28;20355;-63
2023/08/07 06:32:10;;;;;;;9.07;3.03;;;;;;;;;;4985293;28;20126;-64
2023/08/07 06:34:37;;;;;;;7.93;2.30;;;;;;;;;;4995069;28;20038;-64
2023/08/07 06:37:09;;;;;;;8.20;3.08;;;;;;;;;;4973952;28;20512;-63
2023/08/07 06:39:36;;;;;;;6.88;2.75;;;;;;;;;;4990258;28;20066;-65
2023/08/07 06:42:02;;;;;;;12.30;2.90;;;;;;;;;;4989507;28;20113;-63
2023/08/07 06:44:28;;;;;;;6.53;2.58;;;;;;;;;;4989881;28;20037;-65
2023/08/07 06:46:55;;;;;;;8.48;2.40;;;;;;;;;;4982515;28;20065;-63
2023/08/07 06:49:21;;;;;;;11.18;3.00;;;;;;;;;;4990515;28;20042;-63
2023/08/07 06:51:47;;;;;;;6.32;2.50;;;;;;;;;;4993351;28;20038;-64
2023/08/07 06:54:13;;;;;;;12.80;2.97;;;;;;;;;;4991310;28;20513;-63
2023/08/07 06:56:42;;;;;;;8.40;3.03;;;;;;;;;;4984440;28;20126;-63
2023/08/07 06:59:08;;;;;;;6.55;3.25;;;;;;;;;;4983229;28;20315;-63
2023/08/07 07:01:34;;;;;;;10.75;3.85;;;;;;;;;;4992099;28;20521;-63
2023/08/07 07:04:00;;;;;;;8.15;3.75;;;;;;;;;;4991740;28;20042;-63
2023/08/07 07:06:26;;;;;;;13.68;3.90;;;;;;;;;;4971729;28;20475;-60
2023/08/07 07:08:54;;;;;;;8.18;3.47;;;;;;;;;;4989546;28;20047;-61
2023/08/07 07:11:22;;;;;;;9.55;3.85;;;;;;;;;;4989205;28;20046;-63
2023/08/07 07:13:49;;;;;;;10.40;4.03;;;;;;;;;;4989441;28;20114;-60
2023/08/07 07:16:15;;;;;;;9.60;4.05;;;;;;;;;;4999799;28;20049;-63
2023/08/07 07:18:41;;;;;;;7.45;4.45;;;;;;;;;;4994588;28;20042;-63
2023/08/07 07:21:07;;;;;;;11.00;4.00;;;;;;;;;;4993672;28;20430;-62
2023/08/07 07:23:34;;;;;;;12.18;4.35;;;;;;;;;;4984351;28;20034;-62
2023/08/07 07:26:00;;;;;;;7.55;3.17;;;;;;;;;;4993411;28;20501;-62
2023/08/07 07:28:26;;;;;;;12.85;4.18;;;;;;;;;;4986380;28;20053;-62
2023/08/07 07:30:52;;;;;;;13.35;3.65;;;;;;;;;;4993026;28;20582;-62
2023/08/07 07:33:18;;;;;;;6.35;3.10;;;;;;;;;;4989772;28;20449;-62
2023/08/07 07:35:44;;;;;;;15.02;3.83;;;;;;;;;;4993338;28;20081;-62
2023/08/07 07:38:11;;;;;;;5.20;3.45;;;;;;;;;;4997193;28;20073;-62
2023/08/07 07:40:37;;;;;;;7.07;3.55;;;;;;;;;;4993635;28;20494;-62
2023/08/07 07:43:04;;;;;;;8.65;3.95;;;;;;;;;;4991625;28;20157;-62
2023/08/07 07:45:30;;;;;;;13.32;3.38;;;;;;;;;;4983276;28;20042;-62
2023/08/07 07:47:56;;;;;;;8.77;4.72;;;;;;;;;;4992770;28;20042;-62
2023/08/07 07:50:22;;;;;;;7.45;3.75;;;;;;;;;;4972658;28;20572;-62
2023/08/07 07:52:48;;;;;;;8.70;3.72;;;;;;;;;;4996659;28;20095;-62
2023/08/07 07:55:14;;;;;;;13.20;4.90;;;;;;;;;;4989090;28;20428;-62
2023/08/07 07:57:41;;;;;;;14.35;4.25;;;;;;;;;;4991134;28;20042;-62
2023/08/07 08:00:10;;;;;;;10.48;4.38;;;;;;;;;;4987938;28;20076;-63
2023/08/07 08:02:40;;;;;;;13.30;3.97;;;;;;;;;;4984185;28;20034;-63
2023/08/07 08:05:07;;;;;;;9.85;4.22;;;;;;;;;;4989902;28;20117;-63
2023/08/07 08:07:34;;;;;;;15.85;4.88;;;;;;;;;;4994659;28;20041;-63
2023/08/07 08:10:00;;;;;;;8.88;4.07;;;;;;;;;;4994751;28;20156;-63
2023/08/07 08:12:27;;;;;;;6.45;3.47;;;;;;;;;;4990371;28;20449;-63
2023/08/07 08:14:53;;;;;;;7.38;2.90;;;;;;;;;;4987527;28;20397;-63
2023/08/07 08:17:19;;;;;;;7.65;3.95;;;;;;;;;;4988647;28;20469;-63
2023/08/07 08:19:45;;;;;;;10.75;3.95;;;;;;;;;;4988357;28;20077;-62
2023/08/07 08:22:11;;;;;;;9.05;2.65;;;;;;;;;;4991987;28;20080;-62
2023/08/07 08:24:37;;;;;;;6.32;2.58;;;;;;;;;;4985639;28;20038;-62
2023/08/07 08:27:04;;;;;;;9.25;3.30;;;;;;;;;;4974921;28;20355;-62
2023/08/07 08:29:30;;;;;;;7.63;2.83;;;;;;;;;;4988386;28;20038;-62
2023/08/07 08:31:56;;;;;;;9.23;3.10;;;;;;;;;;4993997;28;20504;-63
2023/08/07 08:34:22;;;;;;;13.13;3.45;;;;;;;;;;4988657;28;20046;-61
2023/08/07 08:36:48;;;;;;;7.00;2.72;;;;;;;;;;4995527;28;20042;-61
2023/08/07 08:39:15;;;;;;;9.10;2.92;;;;;;;;;;4992116;28;20054;-62
2023/08/07 08:41:42;;;;;;;8.07;3.78;;;;;;;;;;4987122;28;20045;-61
2023/08/07 08:44:09;;;;;;;9.82;3.97;;;;;;;;;;4991862;28;20042;-62
2023/08/07 08:46:36;;;;;;;5.90;2.47;;;;;;;;;;4986871;28;20038;-62
2023/08/07 08:49:03;;;;;;;7.55;3.33;;;;;;;;;;4988068;28;20060;-62
2023/08/07 08:51:30;;;;;;;10.85;3.38;;;;;;;;;;4987476;28;20046;-62
2023/08/07 08:53:57;;;;;;;7.35;3.25;;;;;;;;;;4989488;28;20351;-62
2023/08/07 08:56:23;;;;;;;6.20;2.80;;;;;;;;;;4986892;28;20441;-61
2023/08/07 08:58:50;;;;;;;8.73;3.13;;;;;;;;;;4987605;28;20042;-61
2023/08/07 09:01:18;;;;;;;7.82;2.88;;;;;;;;;;4990984;28;20046;-61
2023/08/07 09:03:45;;;;;;;8.70;3.13;;;;;;;;;;4961302;28;20043;-62
2023/08/07 09:06:12;;;;;;;6.63;3.03;;;;;;;;;;4993183;28;20241;-62
2023/08/07 09:08:43;;;;;;;10.85;3.65;;;;;;;;;;4987114;28;20042;-62
2023/08/07 09:11:10;;;;;;;8.85;3.53;;;;;;;;;;4973283;28;20085;-62
2023/08/07 09:13:41;;;;;;;6.32;3.17;;;;;;;;;;4989102;28;20058;-62
2023/08/07 09:16:08;;;;;;;7.43;3.30;;;;;;;;;;4979289;28;20057;-62
2023/08/07 09:18:36;;;;;;;7.40;3.20;;;;;;;;;;4985910;28;20129;-62
2023/08/07 09:21:02;;;;;;;10.48;3.40;;;;;;;;;;4968191;28;20383;-62
2023/08/07 09:23:28;;;;;;;11.20;3.45;;;;;;;;;;4986519;28;20038;-62
2023/08/07 09:26:01;;;;;;;9.20;3.75;;;;;;;;;;4982376;28;20144;-62
2023/08/07 09:28:29;;;;;;;12.25;4.40;;;;;;;;;;4980785;28;20473;-62
2023/08/07 09:30:56;;;;;;;10.63;3.60;;;;;;;;;;4959775;28;20407;-62
2023/08/07 09:33:28;;;;;;;10.88;3.35;;;;;;;;;;4985640;28;20508;-62
2023/08/07 09:35:54;;;;;;;;;;;;;;;;;;4985131;28;20462;-62
2023/08/07 09:38:23;;;;;;;8.68;3.05;;;;;;;;;;4981428;28;19938;-62
2023/08/07 09:40:49;;;;;;;6.72;3.13;;;;;;;;;;4983422;28;20041;-62
2023/08/07 09:43:23;;;;;;;9.20;3.00;;;;;;;;;;4985546;28;20034;-62
2023/08/07 09:45:52;;;;;;;;;;;;;;;;;;4985154;28;20034;-62
2023/08/07 09:48:25;;;;;;;5.68;2.30;;;;;;;;;;4981239;28;19921;-62
2023/08/07 09:50:51;;;;;;;5.80;2.70;;;;;;;;;;4985232;28;20042;-62
2023/08/07 09:53:18;;;;;;;8.70;2.97;;;;;;;;;;4985622;28;20102;-62
2023/08/07 09:55:44;;;;;;;5.32;2.65;;;;;;;;;;4984299;28;20494;-61
2023/08/07 09:58:13;;;;;;;6.95;2.65;;;;;;;;;;4949295;28;20049;-62
2023/08/07 10:00:41;;;;;;;12.98;3.50;;;;;;;;;;4982370;28;20241;-62
2023/08/07 10:03:10;;;;;;;14.18;4.15;;;;;;;;;;4982947;28;20093;-62
2023/08/07 10:05:36;;;;;;;11.43;3.63;;;;;;;;;;4972240;28;20030;-62
2023/08/07 10:08:03;;;;;;;7.47;2.83;;;;;;;;;;4976065;28;20220;-61
2023/08/07 10:10:29;;;;;;;5.28;3.10;;;;;;;;;;4990456;28;20045;-62
2023/08/07 10:12:55;;;;;;;9.10;2.35;;;;;;;;;;4987349;28;20521;-62
2023/08/07 10:15:21;;;;;;;7.57;2.92;;;;;;;;;;4981099;28;20061;-63
2023/08/07 10:17:48;;;;;;;9.05;3.25;;;;;;;;;;4987118;28;20054;-63
2023/08/07 10:20:14;;;;;;;7.85;2.90;;;;;;;;;;4995016;28;20054;-62
2023/08/07 10:22:41;;;;;;;6.10;2.42;;;;;;;;;;4982945;28;20548;-63
2023/08/07 10:25:08;;;;;;;7.28;3.15;;;;;;;;;;4977382;28;20039;-63
2023/08/07 10:27:36;;;;;;;5.72;2.15;;;;;;;;;;4997616;28;20167;-64
2023/08/07 10:30:05;;;;;;;8.48;2.92;;;;;;;;;;4990916;28;20042;-63
2023/08/07 10:32:33;;;;;;;11.02;2.90;;;;;;;;;;4985328;28;20043;-62
2023/08/07 10:35:04;;;;;;;7.30;2.70;;;;;;;;;;4987238;28;20518;-63
2023/08/07 10:37:34;;;;;;;4.00;2.35;;;;;;;;;;4986075;28;20049;-63
2023/08/07 10:40:04;;;;;;;7.93;2.45;;;;;;;;;;4979353;28;20057;-62
2023/08/07 10:42:33;;;;;;;3.67;2.28;;;;;;;;;;4986794;28;20441;-63
2023/08/07 10:45:01;;;;;;;4.80;2.25;;;;;;;;;;4986766;28;20532;-62
2023/08/07 10:47:34;;;;;;;7.13;2.63;;;;;;;;;;4942507;28;20042;-63
2023/08/07 10:50:00;;;;;;;;;;;;;;;;;;4980372;28;20145;-62
2023/08/07 10:52:28;;;;;;;6.90;2.40;;;;;;;;;;4988604;28;19921;-63
2023/08/07 10:54:54;;;;;;;3.97;1.83;;;;;;;;;;4964771;28;20505;-63
2023/08/07 10:57:22;;;;;;;3.65;2.10;;;;;;;;;;4983431;28;20506;-62
2023/08/07 11:00:04;;;;;;;4.85;2.65;;;;;;;;;;4986761;28;20049;-63
2023/08/07 11:02:32;;;;;;;7.37;3.10;;;;;;;;;;4985754;28;20042;-62
2023/08/07 11:04:58;;;;;;;7.60;2.40;;;;;;;;;;4987008;28;20054;-63
2023/08/07 11:07:28;;;;;;;5.25;1.90;;;;;;;;;;4990655;28;20065;-63
2023/08/07 11:09:55;;;;;;;4.38;2.38;;;;;;;;;;4969279;28;20085;-63
2023/08/07 11:12:21;;;;;;;7.28;2.70;;;;;;;;;;4987300;28;20042;-65
2023/08/07 11:14:47;;;;;;;8.52;2.15;;;;;;;;;;4987482;28;20040;-63
2023/08/07 11:17:14;;;;;;;4.40;2.85;;;;;;;;;;4985717;28;20113;-63
2023/08/07 11:19:40;;;;;;;5.43;2.67;;;;;;;;;;4994224;28;20038;-63
2023/08/07 11:22:06;;;;;;;5.97;3.10;;;;;;;;;;4996071;28;20150;-63
2023/08/07 11:24:32;;;;;;;7.63;3.00;;;;;;;;;;4987271;28;20045;-63
2023/08/07 11:26:58;;;;;;;4.18;2.70;;;;;;;;;;4985312;28;20129;-63
2023/08/07 11:29:25;;;;;;;7.03;2.55;;;;;;;;;;4989732;28;20057;-63
2023/08/07 11:31:54;;;;;;;7.03;2.70;;;;;;;;;;4989671;28;20101;-62
2023/08/07 11:34:21;;;;;;;5.22;2.28;;;;;;;;;;4969872;28;20512;-63
2023/08/07 11:36:48;;;;;;;6.78;2.80;;;;;;;;;;4936761;28;20074;-63
2023/08/07 11:39:14;;;;;;;8.65;2.47;;;;;;;;;;4991969;28;20151;-62
2023/08/07 11:41:40;;;;;;;6.93;3.42;;;;;;;;;;4985154;28;20053;-63
2023/08/07 11:44:09;;;;;;;8.95;2.42;;;;;;;;;;4992416;28;20069;-63
2023/08/07 11:46:36;;;;;;;6.50;2.50;;;;;;;;;;4988981;28;20039;-63
2023/08/07 11:49:04;;;;;;;5.60;2.10;;;;;;;;;;4964284;28;20137;-63
2023/08/07 11:51:30;;;;;;;7.68;2.55;;;;;;;;;;4979586;28;20037;-61
2023/08/07 11:53:58;;;;;;;4.38;2.35;;;;;;;;;;4993138;28;20042;-61
2023/08/07 11:56:24;;;;;;;7.72;2.53;;;;;;;;;;4988045;28;20046;-63
2023/08/07 11:58:52;;;;;;;3.97;2.03;;;;;;;;;;4960567;28;20039;-62
2023/08/07 12:01:19;;;;;;;5.43;2.70;;;;;;;;;;4991150;28;20064;-61
2023/08/07 12:03:54;;;;;;;3.90;2.00;;;;;;;;;;4986753;28;20042;-63
2023/08/07 12:06:21;;;;;;;3.72;2.72;;;;;;;;;;4985453;28;20095;-61
2023/08/07 12:08:49;;;;;;;6.20;3.08;;;;;;;;;;4967313;28;20506;-62
2023/08/07 12:11:16;;;;;;;5.40;2.58;;;;;;;;;;4988660;28;20072;-62
2023/08/07 12:13:44;;;;;;;4.70;2.47;;;;;;;;;;4986896;28;20034;-62
2023/08/07 12:16:15;;;;;;;3.63;1.95;;;;;;;;;;4987451;28;20104;-62
2023/08/07 12:18:45;;;;;;;3.75;1.70;;;;;;;;;;4986677;28;20042;-62
2023/08/07 12:21:13;;;;;;;5.70;1.83;;;;;;;;;;4984895;28;20050;-62
2023/08/07 12:23:40;;;;;;;3.38;1.75;;;;;;;;;;4984442;28;20084;-62
2023/08/07 12:26:07;;;;;;;4.78;2.00;;;;;;;;;;4926436;28;20116;-62
2023/08/07 12:28:33;;;;;;;4.72;2.33;;;;;;;;;;4985426;28;20045;-62
2023/08/07 12:30:59;;;;;;;5.85;2.10;;;;;;;;;;4986191;28;20130;-62
2023/08/07 12:33:25;;;;;;;7.05;2.65;;;;;;;;;;4984831;28;20049;-62
2023/08/07 12:35:53;;;;;;;6.93;2.28;;;;;;;;;;4985087;28;20049;-62
2023/08/07 12:38:19;;;;;;;10.13;3.20;;;;;;;;;;4985099;28;20046;-62
2023/08/07 12:40:46;;;;;;;4.60;2.28;;;;;;;;;;4986252;28;20342;-62
2023/08/07 12:43:12;;;;;;;7.63;2.83;;;;;;;;;;4984550;28;20042;-62
2023/08/07 12:45:38;;;;;;;5.32;2.63;;;;;;;;;;4967388;28;20042;-62
2023/08/07 12:48:05;;;;;;;4.35;2.42;;;;;;;;;;4976914;28;20073;-62
2023/08/07 12:50:31;;;;;;;9.55;3.08;;;;;;;;;;4967632;28;20056;-62
2023/08/07 12:52:58;;;;;;;5.47;2.88;;;;;;;;;;4985930;28;20449;-62
2023/08/07 12:55:24;;;;;;;5.63;2.47;;;;;;;;;;4970416;28;20042;-62
2023/08/07 12:57:50;;;;;;;5.95;2.80;;;;;;;;;;4950705;28;20433;-62
2023/08/07 13:00:18;;;;;;;7.53;3.50;;;;;;;;;;4966760;28;20046;-62
2023/08/07 13:02:48;;;;;;;3.83;2.17;;;;;;;;;;4967008;28;20078;-63
2023/08/07 13:05:16;;;;;;;7.10;2.70;;;;;;;;;;4985280;28;20500;-63
2023/08/07 13:07:43;;;;;;;9.88;2.75;;;;;;;;;;4984390;28;20042;-63
2023/08/07 13:10:10;;;;;;;6.90;3.00;;;;;;;;;;4965179;28;20437;-63
2023/08/07 13:12:37;;;;;;;7.38;2.75;;;;;;;;;;4979089;28;20042;-63
2023/08/07 13:15:12;;;;;;;7.00;2.33;;;;;;;;;;4983314;28;20044;-63
2023/08/07 13:17:38;;;;;;;5.60;2.55;;;;;;;;;;4980600;28;20050;-62
2023/08/07 13:20:07;;;;;;;9.15;2.65;;;;;;;;;;4983069;28;20180;-63
2023/08/07 13:22:37;;;;;;;6.70;2.83;;;;;;;;;;4981447;28;20070;-63
2023/08/07 13:25:04;;;;;;;7.60;3.00;;;;;;;;;;4983041;28;20188;-62
2023/08/07 13:27:34;;;;;;;6.38;2.20;;;;;;;;;;4984047;28;20038;-63
2023/08/07 13:30:00;;;;;;;11.68;3.22;;;;;;;;;;4961687;28;20039;-62
2023/08/07 13:32:27;;;;;;;7.82;2.35;;;;;;;;;;4986034;28;20042;-63
2023/08/07 13:34:53;;;;;;;7.15;3.13;;;;;;;;;;4957553;28;20493;-63
2023/08/07 13:37:19;;;;;;;6.63;2.90;;;;;;;;;;4986837;28;20045;-63
2023/08/07 13:39:48;;;;;;;5.95;2.70;;;;;;;;;;4983086;28;20048;-63
2023/08/07 13:42:14;;;;;;;4.25;2.28;;;;;;;;;;4985329;28;20053;-63
2023/08/07 13:44:40;;;;;;;8.52;2.85;;;;;;;;;;4979749;28;20540;-63
2023/08/07 13:47:06;;;;;;;5.18;2.17;;;;;;;;;;4979791;28;20057;-62
2023/08/07 13:49:32;;;;;;;3.58;2.00;;;;;;;;;;4977724;28;20473;-62
2023/08/07 13:51:59;;;;;;;6.32;3.33;;;;;;;;;;4983547;28;20580;-62
2023/08/07 13:54:25;;;;;;;8.38;3.30;;;;;;;;;;4983471;28;20787;-62
2023/08/07 13:56:51;;;;;;;4.35;2.75;;;;;;;;;;4986624;28;20095;-62
2023/08/07 13:59:17;;;;;;;6.47;3.08;;;;;;;;;;4979123;28;20173;-62
2023/08/07 14:01:43;;;;;;;6.97;2.78;;;;;;;;;;4981106;28;20048;-62
2023/08/07 14:04:09;;;;;;;9.68;3.05;;;;;;;;;;4983120;28;20047;-63
2023/08/07 14:06:36;;;;;;;5.97;2.88;;;;;;;;;;4969321;28;20473;-63
2023/08/07 14:09:02;;;;;;;8.45;3.42;;;;;;;;;;4971056;28;20066;-62
2023/08/07 14:11:31;;;;;;;10.55;2.63;;;;;;;;;;4985507;28;20042;-62
2023/08/07 14:14:00;;;;;;;6.03;2.17;;;;;;;;;;4983658;28;20100;-63
2023/08/07 14:16:26;;;;;;;12.88;2.85;;;;;;;;;;4972583;28;20038;-62
2023/08/07 14:18:52;;;;;;;10.35;3.30;;;;;;;;;;4984228;28;20715;-62
2023/08/07 14:21:19;;;;;;;8.18;2.60;;;;;;;;;;4969722;28;20042;-62
2023/08/07 14:23:48;;;;;;;7.05;2.50;;;;;;;;;;4984691;28;20501;-63
2023/08/07 14:26:14;;;;;;;8.70;2.72;;;;;;;;;;4979193;28;20042;-62
2023/08/07 14:28:40;;;;;;;6.18;1.90;;;;;;;;;;4984136;28;20038;-63
2023/08/07 14:31:07;;;;;;;6.32;2.83;;;;;;;;;;4983857;28;20117;-62
2023/08/07 14:33:34;;;;;;;4.20;2.25;;;;;;;;;;4986173;28;20897;-62